• Join FlightAware (Why Join?)
  • Login
  • US Flag 
03:35PM EDT


 

Airport Tracker/Info


-or-


 

Live Flight TrackerFlight Track Log ✈ TAM3714 ✈ 09-Oct-2013 ✈ SBSP / CGH - SBBR / BSB

Flight Track Log - Related Links

Times and Time Zones

All times are in EDT time to prevent confusion due to time zone crossing. See the TAM3714 flight status page for this flight to view local times or setup timezone preferences in your user account.

Time Position Orientation Groundspeed Altitude Reporting Facility
EDT Latitude Longitude Course Direction KTS MPH feet Rate Location/Type
08:23PM -23.6220 -46.6600 335° Northwest  Level FlightAware
08:26PM -23.4289 -46.6928 351° North  Level Estimated
08:26PM -23.6220 -46.6610 351° North  Level FlightAware
08:27PM -23.3331 -46.7090 351° North  Level Estimated
08:29PM -23.4550 -46.6892 351° North  Level Estimated
08:29PM -23.6200 -46.6610 351° North  Level FlightAware
08:30PM -23.6480 -46.6400 145° Southeast 170 196 3,400 2,520 Climbing FlightAware
08:31PM -23.6490 -46.6380 119° Southeast 172 198 3,400 1,200 Level FlightAware
08:31PM -23.6500 -46.6320 100° East 178 205 3,600 1,800 Climbing FlightAware
08:31PM -23.6500 -46.6280 90° East 181 208 3,700 1,920 Climbing FlightAware
08:31PM -23.6420 -46.6120 61° Northeast 194 223 4,400 2,160 Climbing FlightAware
08:31PM -23.6330 -46.6060 31° Northeast 200 230 4,800 2,640 Climbing FlightAware
08:32PM -23.6130 -46.5900 36° Northeast 200 230 6,000 2,700 Climbing FlightAware
08:32PM -23.6110 -46.5860 61° Northeast 199 229 6,200 2,760 Climbing FlightAware
08:32PM -23.6090 -46.5790 73° East 198 228 6,600 1,500 Climbing FlightAware
08:32PM -23.6050 -46.5570 79° East 223 257 6,900 1,080 Climbing FlightAware
08:33PM -23.5990 -46.5280 77° East 265 305 7,400 1,620 Climbing FlightAware
08:33PM -23.5930 -46.5010 76° East 283 326 8,100 2,700 Climbing FlightAware
08:33PM -23.5870 -46.4730 77° East 287 330 9,200 2,460 Climbing FlightAware
08:34PM -23.5810 -46.4450 77° East 298 343 9,800 1,320 Climbing FlightAware
08:34PM -23.5760 -46.4230 76° East 300 345 10,000 540 Climbing FlightAware
08:34PM -23.5640 -46.3690 76° East 305 351 10,300 960 Climbing FlightAware
08:35PM -23.5520 -46.3170 76° East 341 392 11,100 1,980 Climbing FlightAware
08:36PM -23.5390 -46.2570 77° East 352 405 12,600 2,460 Climbing FlightAware
08:36PM -23.5250 -46.2070 73° East 361 415 13,800 2,460 Climbing FlightAware
08:36PM -23.5150 -46.1920 54° Northeast 367 422 14,200 2,460 Climbing FlightAware
08:37PM -23.4870 -46.1710 35° Northeast 374 430 15,000 2,460 Climbing FlightAware
08:37PM -23.4680 -46.1650 16° North 378 435 15,500 1,860 Climbing FlightAware
08:37PM -23.4030 -46.1510 11° North 396 456 16,500 1,800 Climbing FlightAware
08:38PM -23.3210 -46.1550 357° North 401 461 18,000 1,980 Climbing FlightAware
08:38PM -23.2980 -46.1730 324° Northwest 395 455 18,600 1,980 Climbing FlightAware
08:39PM -23.2530 -46.2240 314° West 397 457 19,700 2,040 Climbing FlightAware
08:40PM -23.2100 -46.2740 313° West 403 464 21,000 2,040 Climbing FlightAware
08:40PM -23.1630 -46.3270 314° West 406 467 22,100 1,800 Climbing FlightAware
08:41PM -23.1180 -46.3790 313° West 418 481 23,100 2,040 Climbing FlightAware
08:41PM -23.0710 -46.4330 313° West 410 472 24,500 2,100 Climbing FlightAware
08:42PM -23.0260 -46.4840 314° West 411 473 25,600 1,680 Climbing FlightAware
08:42PM -22.9780 -46.5380 314° West 420 483 26,500 1,560 Climbing FlightAware
08:43PM -22.9420 -46.5640 326° Northwest 440 506 27,100 1,500 Climbing FlightAware
08:43PM -22.9150 -46.5750 339° North 450 518 27,400 1,320 Climbing FlightAware
08:44PM -22.8390 -46.5880 351° North 457 526 28,200 1,440 Climbing FlightAware
08:44PM -22.7650 -46.6010 351° North 458 527 29,100 1,440 Climbing FlightAware
08:45PM -22.6900 -46.6130 352° North 469 540 29,900 1,140 Climbing FlightAware
08:45PM -22.6100 -46.6270 351° North 468 539 30,500 900 Climbing FlightAware
08:46PM -22.5340 -46.6390 352° North 475 547 31,000 840 Climbing FlightAware
08:47PM -22.4580 -46.6510 352° North 473 544 31,500 720 Climbing FlightAware
08:47PM -22.3930 -46.6620 351° North 468 539 31,800 600 Climbing FlightAware
08:48PM -22.3060 -46.6760 352° North 475 547 32,200 600 Climbing FlightAware
08:48PM -22.2290 -46.6870 352° North 485 558 32,600 780 Climbing FlightAware
08:49PM -22.1580 -46.6980 352° North 484 557 33,100 1,080 Climbing FlightAware
08:49PM -22.0700 -46.7120 352° North 485 558 33,900 1,320 Climbing FlightAware
08:50PM -21.9950 -46.7230 352° North 471 542 34,800 1,200 Climbing FlightAware
08:51PM -21.9080 -46.7360 352° North 472 543 35,400 840 Climbing FlightAware
08:51PM -21.8270 -46.7480 352° North 484 557 35,900 960 Climbing FlightAware
08:52PM -21.7400 -46.7610 352° North 483 556 36,600 960 Climbing FlightAware
08:53PM -21.6530 -46.7740 352° North 474 545 37,200 900 Climbing FlightAware
08:53PM -21.5890 -46.7830 353° North 471 542 37,700 1,080 Climbing FlightAware
08:54PM -21.5120 -46.7940 352° North 471 542 38,400 1,020 Climbing FlightAware
08:54PM -21.4230 -46.8070 352° North 456 525 39,000 420 Climbing FlightAware
08:55PM -21.3390 -46.8200 352° North 467 537 39,000  Level FlightAware
08:56PM -21.2610 -46.8320 352° North 467 537 39,000  Level FlightAware
08:56PM -21.1840 -46.8430 352° North 467 537 39,000  Level FlightAware
08:57PM -21.1070 -46.8540 352° North 468 539 39,000  Level FlightAware
08:57PM -21.0320 -46.8650 352° North 469 540 39,000  Level FlightAware
08:58PM -20.9550 -46.8760 352° North 471 542 39,000  Level FlightAware
08:59PM -20.8760 -46.8880 352° North 472 543 39,000  Level FlightAware
08:59PM -20.7990 -46.8990 352° North 473 544 39,000  Level FlightAware
09:00PM -20.7290 -46.9090 352° North 475 547 39,000  Level FlightAware
09:00PM -20.6500 -46.9210 352° North 475 547 39,000  Level FlightAware
09:01PM -20.5710 -46.9320 353° North 475 547 39,000  Level FlightAware
09:01PM -20.5030 -46.9420 352° North 475 547 39,000  Level FlightAware
09:02PM -20.4220 -46.9540 352° North 474 545 39,000  Level FlightAware
09:03PM -20.3440 -46.9660 352° North 471 542 39,000  Level FlightAware
09:03PM -20.2670 -46.9770 352° North 469 540 39,000  Level FlightAware
09:04PM -20.1970 -46.9870 352° North 467 537 39,000  Level FlightAware
09:04PM -20.1230 -47.0030 349° North 450 518 39,000  Level FlightAware
09:05PM -20.0980 -47.0160 334° Northwest 437 503 39,000  Level FlightAware
09:05PM -20.0380 -47.0600 325° Northwest 430 495 39,000  Level FlightAware
09:06PM -19.9820 -47.1010 325° Northwest 430 495 39,000  Level FlightAware
09:06PM -19.9230 -47.1440 326° Northwest 430 495 39,000  Level FlightAware
09:07PM -19.8680 -47.1850 325° Northwest 431 496 39,000  Level FlightAware
09:08PM -19.8080 -47.2280 326° Northwest 433 498 39,000  Level FlightAware
09:08PM -19.7480 -47.2730 325° Northwest 434 499 39,000  Level FlightAware
09:09PM -19.6970 -47.3100 326° Northwest 434 499 39,000  Level FlightAware
09:09PM -19.6350 -47.3550 326° Northwest 435 501 39,000  Level FlightAware
09:10PM -19.5750 -47.3980 326° Northwest 436 502 39,000  Level FlightAware
09:10PM -19.5230 -47.4370 325° Northwest 436 502 39,000  Level FlightAware
09:11PM -19.4610 -47.4820 326° Northwest 436 502 39,000  Level FlightAware
09:12PM -19.3860 -47.5360 326° Northwest 434 499 39,000  Level FlightAware
09:12PM -19.3340 -47.5730 326° Northwest 433 498 39,000  Level FlightAware
09:13PM -19.2730 -47.6180 325° Northwest 432 497 39,000  Level FlightAware
09:14PM -19.2170 -47.6580 326° Northwest 432 497 39,000  Level FlightAware
09:14PM -19.1560 -47.7030 325° Northwest 432 497 39,000  Level FlightAware
09:15PM -19.1050 -47.7400 326° Northwest 434 499 39,000  Level FlightAware
09:15PM -19.0420 -47.7850 326° Northwest 436 502 39,000  Level FlightAware
09:16PM -18.9840 -47.8270 326° Northwest 436 502 39,000  Level FlightAware
09:16PM -18.9210 -47.8720 326° Northwest 437 503 39,000  Level FlightAware
09:17PM -18.8670 -47.9110 326° Northwest 437 503 39,000  Level FlightAware
09:18PM -18.8070 -47.9540 326° Northwest 437 503 39,000  Level FlightAware
09:18PM -18.7460 -47.9980 326° Northwest 437 503 39,000  Level FlightAware
09:19PM -18.6870 -48.0410 325° Northwest 437 503 39,000  Level FlightAware
09:19PM -18.6330 -48.0800 326° Northwest 438 504 39,000  Level FlightAware
09:20PM -18.5730 -48.1220 326° Northwest 439 505 39,000  Level FlightAware
09:20PM -18.5160 -48.1640 325° Northwest 440 506 39,000  Level FlightAware
09:21PM -18.4620 -48.2020 326° Northwest 441 507 39,000  Level FlightAware
09:22PM -18.3980 -48.2480 326° Northwest 442 509 39,000  Level FlightAware
09:22PM -18.3340 -48.2930 326° Northwest 443 510 39,000  Level FlightAware
09:23PM -18.2830 -48.3300 325° Northwest 442 509 39,000  Level FlightAware
09:23PM -18.2160 -48.3780 326° Northwest 441 507 39,000  Level FlightAware
09:24PM -18.1550 -48.4210 326° Northwest 438 504 39,000  Level FlightAware
09:25PM -18.0810 -48.4740 326° Northwest 434 499 39,000  Level FlightAware
09:25PM -18.0180 -48.5190 326° Northwest 431 496 39,000  Level FlightAware
09:26PM -17.9680 -48.5430 335° Northwest 452 520 39,000 -540 Level FlightAware
09:26PM -17.9220 -48.5500 352° North 472 543 38,600 -1,860 Descending FlightAware
09:27PM -17.8570 -48.5420 North 481 554 37,500 -2,580 Descending FlightAware
09:27PM -17.7820 -48.5320 North 480 552 35,900 -2,880 Descending FlightAware
09:28PM -17.7080 -48.5230 North 479 551 34,300 -2,700 Descending FlightAware
09:28PM -17.6280 -48.5130 North 476 548 32,800 -2,340 Descending FlightAware
09:29PM -17.5510 -48.5030 North 468 539 31,500 -2,280 Descending FlightAware
09:30PM -17.4780 -48.4940 North 462 532 30,200 -2,100 Descending FlightAware
09:30PM -17.3980 -48.4840 North 455 524 28,900 -1,740 Descending FlightAware
09:31PM -17.3220 -48.4740 North 432 497 28,000 -1,500 Descending FlightAware
09:31PM -17.2640 -48.4660 North 414 476 27,300 -1,680 Descending FlightAware
09:32PM -17.1960 -48.4580 North 404 465 26,200 -2,100 Descending FlightAware
09:33PM -17.1220 -48.4480 North 400 460 24,700 -2,220 Descending FlightAware
09:33PM -17.0670 -48.4410 North 398 458 23,700 -2,040 Descending FlightAware
09:34PM -17.0030 -48.4330 North 391 450 22,500 -1,740 Descending FlightAware
09:34PM -16.9450 -48.4260 North 379 436 21,700 -1,740 Descending FlightAware
09:35PM -16.8800 -48.4280 358° North 371 427 20,600 -1,860 Descending FlightAware
09:36PM -16.8130 -48.4360 353° North 363 418 19,500 -1,620 Descending FlightAware
09:36PM -16.7560 -48.4410 355° North 354 407 18,600 -1,680 Descending FlightAware
09:37PM -16.6980 -48.4470 354° North 347 399 17,600 -1,680 Descending FlightAware
09:37PM -16.6550 -48.4550 350° North 343 395 16,800 -1,860 Descending FlightAware
09:38PM -16.5800 -48.4710 348° North 342 394 15,300 -1,800 Descending FlightAware
09:39PM -16.5180 -48.4840 349° North 338 389 14,300 -1,620 Descending FlightAware
09:39PM -16.4720 -48.4930 349° North 339 390 13,400 -1,440 Descending FlightAware
09:40PM -16.4200 -48.5040 349° North 322 371 12,800 -1,320 Descending FlightAware
09:40PM -16.3740 -48.5130 349° North 321 369 11,900 -1,440 Descending FlightAware
09:41PM -16.3210 -48.5240 349° North 309 356 11,100 -1,440 Descending FlightAware
09:42PM -16.2700 -48.5350 348° North 306 352 10,200 -1,200 Descending FlightAware
09:42PM -16.2310 -48.5260 12° North 292 336 9,900 -660 Descending FlightAware
09:42PM -16.2220 -48.5150 50° Northeast 288 331 9,800 -720 Descending FlightAware
09:42PM -16.2110 -48.4980 56° Northeast 284 327 9,600 -600 Descending FlightAware
09:43PM -16.1940 -48.4700 58° Northeast 281 323 9,400 -540 Descending FlightAware
09:43PM -16.1860 -48.4570 57° Northeast 281 323 9,300 -540 Descending FlightAware
09:43PM -16.1690 -48.4300 57° Northeast 279 321 9,100 -720 Descending FlightAware
09:44PM -16.1620 -48.4190 56° Northeast 277 319 8,900 -600 Descending FlightAware
09:44PM -16.1480 -48.3970 56° Northeast 272 313 8,800 -660 Descending FlightAware
09:44PM -16.1310 -48.3700 57° Northeast 266 306 8,400 -660 Descending FlightAware
09:45PM -16.1170 -48.3480 56° Northeast 252 290 8,300 -480 Descending FlightAware
09:45PM -16.1050 -48.3290 57° Northeast 239 275 8,100 -720 Descending FlightAware
09:45PM -16.0910 -48.3050 59° Northeast 231 266 7,800 -780 Descending FlightAware
09:46PM -16.0820 -48.2920 54° Northeast 224 258 7,600 -540 Descending FlightAware
09:46PM -16.0710 -48.2730 59° Northeast 226 260 7,500 -480 Descending FlightAware
09:46PM -16.0600 -48.2550 58° Northeast 225 259 7,300 -540 Descending FlightAware
09:47PM -16.0510 -48.2410 56° Northeast 225 259 7,200 -540 Descending FlightAware
09:47PM -16.0400 -48.2230 58° Northeast 225 259 7,000 -420 Descending FlightAware
09:47PM -16.0340 -48.2140 55° Northeast 225 259 7,000 -360 Level FlightAware
09:47PM -16.0200 -48.1920 56° Northeast 225 259 6,800 -360 Descending FlightAware
09:48PM -16.0140 -48.1830 55° Northeast 225 259 6,800  Level FlightAware
09:48PM -16.0000 -48.1600 58° Northeast 222 255 6,800  Level FlightAware
09:48PM -15.9910 -48.1470 54° Northeast 223 257 6,800 -300 Level FlightAware
09:48PM -15.9870 -48.1430 44° Northeast 226 260 6,700 -720 Descending FlightAware
09:48PM -15.9830 -48.1400 36° Northeast 229 264 6,700 -420 Level FlightAware
09:49PM -15.9730 -48.1350 26° Northeast 229 264 6,600 -780 Descending FlightAware
09:49PM -15.9530 -48.1310 11° North 224 258 6,300 -780 Descending FlightAware
09:49PM -15.9320 -48.1250 15° North 226 260 6,100 -360 Descending FlightAware
09:50PM -15.9180 -48.1200 19° North 231 266 6,100  Level FlightAware
09:50PM -15.8990 -48.1110 24° Northeast 226 260 6,100 -240 Level FlightAware
09:50PM -15.8940 -48.1020 60° Northeast 219 252 6,000 -420 Descending FlightAware
09:50PM -15.8920 -48.0970 67° East 214 246 6,000 -600 Level FlightAware
09:50PM -15.8910 -48.0910 80° East 211 243 5,900 -780 Descending FlightAware
09:51PM -15.8890 -48.0670 85° East 195 224 5,600 -960 Descending FlightAware
09:51PM -15.8880 -48.0500 87° East 177 204 5,200 -1,080 Descending FlightAware
09:51PM -15.8870 -48.0340 86° East 155 178 4,900 -780 Descending FlightAware
09:52PM -15.8860 -48.0200 86° East 140 161 4,700 -720 Descending FlightAware
09:52PM -15.8850 -48.0110 83° East 138 159 4,500 -720 Descending FlightAware
09:52PM -15.8840 -47.9970 86° East 133 153 4,300 -720 Descending FlightAware
09:52PM -15.8840 -47.9880 90° East 134 154 4,100 -720 Descending FlightAware
09:53PM -15.8830 -47.9750 85° East 134 154 3,900 -660 Descending FlightAware
09:53PM -15.8820 -47.9620 85° East 133 153 3,700 -720 Descending FlightAware
09:53PM -15.8820 -47.9520 90° East 134 154 3,500 -780 Descending FlightAware
09:54PM -15.8800 -47.9360 83° East 137 158 3,200 -360 Descending FlightAware
09:54PM -15.8790 -47.9180 87° East 133 153 3,200  Level FlightAware
09:57PM -15.8626 -47.9127 17° North  Level Estimated
09:58PM -15.8626 -47.9127 128° Southeast  Level Estimated